Aberdeen, California
Current Conditions -  °F | °C
As of 1:56 AM on Wednesday 22 Oct 2014 (Local Time) from KBIH Reporting Station
Clear Clear  
Wind Chill: 50°   Ceiling: Unl
Heat Index: 50°   Visibility: 10mi
Dew Point: 19°   Wind: 9mph
Humidity: 29%   Direction: 340°NNW
Pressure: 30.04"   Gusts: NA
Location:  36.9237°N, 117.897°W
Report Text: KBIH 220856Z AUTO 34008KT 10SM CLR 10/M07 A3004 RMK AO2 SLP135 T01001072 51009
Loading
Personal Weather Stations






























Interactive Weather Map
Tropical Storm Tracking
New forecast layout! Learn more

10-Day Weather Forecast

Advertisements
Track Severe Weather on mobile